createdAt,value
2023-05-05T00:02:23.237Z,12.74
2023-05-05T00:04:53.304Z,12.62
2023-05-05T00:07:23.936Z,12.51
2023-05-05T00:09:52.067Z,12.38
2023-05-05T00:12:20.410Z,12.31
2023-05-05T00:14:49.310Z,12.25
2023-05-05T00:17:19.289Z,12.17
2023-05-05T00:19:48.829Z,12.11
2023-05-05T00:22:17.006Z,12.04
2023-05-05T00:24:45.121Z,12.01
2023-05-05T00:27:16.776Z,11.98
2023-05-05T00:29:45.269Z,11.96
2023-05-05T00:32:13.795Z,11.92
2023-05-05T00:34:42.085Z,11.90
2023-05-05T00:37:13.642Z,11.92
2023-05-05T00:39:41.850Z,12.01
2023-05-05T00:42:10.067Z,12.14
2023-05-05T00:44:41.530Z,12.13
2023-05-05T00:47:11.087Z,12.10
2023-05-05T00:49:39.904Z,12.10
2023-05-05T00:52:08.307Z,12.09
2023-05-05T00:54:38.112Z,12.08
2023-05-05T00:57:06.411Z,12.10
2023-05-05T00:59:35.465Z,12.09
2023-05-05T01:02:07.219Z,12.11
2023-05-05T01:04:36.386Z,12.16
2023-05-05T01:07:30.191Z,12.14
2023-05-05T01:10:19.620Z,12.10
2023-05-05T01:12:59.858Z,12.09
2023-05-05T01:15:34.344Z,12.11
2023-05-05T01:18:16.544Z,12.10
2023-05-05T01:20:50.886Z,12.09
2023-05-05T01:23:34.534Z,12.19
2023-05-05T01:26:22.533Z,12.29
2023-05-05T01:29:22.861Z,12.25
2023-05-05T01:31:54.808Z,12.24
2023-05-05T01:34:27.288Z,12.25
2023-05-05T01:37:04.613Z,12.34
2023-05-05T01:39:37.005Z,12.46
2023-05-05T01:42:13.827Z,12.55
2023-05-05T01:44:44.570Z,12.62
2023-05-05T01:47:16.996Z,12.60
2023-05-05T01:49:48.025Z,12.50
2023-05-05T01:52:17.119Z,12.48
2023-05-05T01:54:47.553Z,12.42
2023-05-05T01:57:16.910Z,12.30
2023-05-05T01:59:45.254Z,12.18
2023-05-05T02:02:18.330Z,12.05
2023-05-05T02:04:47.306Z,11.96
2023-05-05T02:07:18.294Z,11.85
2023-05-05T02:09:48.166Z,11.76
2023-05-05T02:12:17.854Z,11.65
2023-05-05T02:14:50.096Z,11.56
2023-05-05T02:17:23.096Z,11.52
2023-05-05T02:19:53.354Z,11.51
2023-05-05T02:22:21.955Z,11.49
2023-05-05T02:24:50.070Z,11.60
2023-05-05T02:27:23.964Z,11.73
2023-05-05T02:29:58.061Z,11.80
2023-05-05T02:32:33.048Z,11.80
2023-05-05T02:35:10.670Z,11.77
2023-05-05T02:37:45.791Z,11.72
2023-05-05T02:40:18.753Z,11.67
2023-05-05T02:42:50.823Z,11.61
2023-05-05T02:45:23.450Z,11.56
2023-05-05T02:47:53.425Z,11.52
2023-05-05T02:50:23.391Z,11.56
2023-05-05T02:53:03.004Z,11.55
2023-05-05T02:55:38.790Z,11.48
2023-05-05T02:58:10.682Z,11.40
2023-05-05T03:00:50.845Z,11.33
2023-05-05T03:03:31.836Z,11.24
2023-05-05T03:06:07.072Z,11.15
2023-05-05T03:08:53.889Z,11.17
2023-05-05T03:11:32.118Z,11.10
2023-05-05T03:14:06.809Z,11.05
2023-05-05T03:16:37.095Z,11.02
2023-05-05T03:19:10.662Z,10.96
2023-05-05T03:21:41.155Z,10.90
2023-05-05T03:24:13.966Z,10.86
2023-05-05T03:26:45.680Z,10.80
2023-05-05T03:29:15.150Z,10.81
2023-05-05T03:31:43.497Z,10.95
2023-05-05T03:34:13.291Z,10.96
2023-05-05T03:36:46.596Z,10.91
2023-05-05T03:39:18.704Z,10.90
2023-05-05T03:41:47.778Z,10.94
2023-05-05T03:44:17.184Z,11.07
2023-05-05T03:46:45.706Z,11.02
2023-05-05T03:49:17.858Z,11.06
2023-05-05T03:51:48.716Z,11.09
2023-05-05T03:54:17.843Z,11.12
2023-05-05T03:56:47.369Z,11.07
2023-05-05T03:59:15.967Z,11.04
2023-05-05T04:01:49.517Z,10.98
2023-05-05T04:04:19.860Z,10.94
2023-05-05T04:06:50.944Z,10.92
2023-05-05T04:09:18.974Z,10.92
2023-05-05T04:11:47.425Z,10.92
2023-05-05T04:14:15.761Z,10.92
2023-05-05T04:16:44.400Z,10.92
2023-05-05T04:19:14.604Z,10.96
2023-05-05T04:21:44.470Z,11.14
2023-05-05T04:24:13.041Z,11.23
2023-05-05T04:26:41.534Z,11.26
2023-05-05T04:29:09.889Z,11.27
2023-05-05T04:31:38.742Z,11.32
2023-05-05T04:34:07.016Z,11.34
2023-05-05T04:36:35.546Z,11.33
2023-05-05T04:39:06.986Z,11.36
2023-05-05T04:41:35.873Z,11.42
2023-05-05T04:44:04.484Z,11.50
2023-05-05T04:46:34.818Z,11.58
2023-05-05T04:49:07.540Z,11.61
2023-05-05T04:51:35.955Z,11.68
2023-05-05T04:54:05.703Z,11.75
2023-05-05T04:56:34.059Z,11.86
2023-05-05T04:59:02.161Z,12.01
2023-05-05T05:01:30.395Z,12.13
2023-05-05T05:03:58.723Z,12.20
2023-05-05T05:06:27.346Z,12.32
2023-05-05T05:08:55.556Z,12.41
2023-05-05T05:11:26.219Z,12.58
2023-05-05T05:13:55.827Z,12.72
2023-05-05T05:16:26.263Z,12.89
2023-05-05T05:19:01.472Z,13.10
2023-05-05T05:21:31.641Z,13.21
2023-05-05T05:24:00.062Z,13.39
2023-05-05T05:26:29.985Z,13.52
2023-05-05T05:29:00.523Z,13.67
2023-05-05T05:31:29.280Z,13.89
2023-05-05T05:33:58.161Z,13.97
2023-05-05T05:36:27.193Z,14.10
2023-05-05T05:38:57.408Z,14.30
2023-05-05T05:41:25.924Z,14.41
2023-05-05T05:43:57.907Z,14.70
2023-05-05T05:46:26.617Z,14.89
2023-05-05T05:48:55.052Z,15.07
2023-05-05T05:51:23.451Z,15.22
2023-05-05T05:53:52.352Z,15.43
2023-05-05T05:56:21.806Z,15.73
2023-05-05T05:58:51.525Z,15.95
2023-05-05T06:01:21.682Z,16.27
2023-05-05T06:03:50.226Z,16.37
2023-05-05T06:06:18.984Z,16.39
2023-05-05T06:08:48.046Z,16.61
2023-05-05T06:11:16.734Z,16.70
2023-05-05T06:13:46.328Z,16.88
2023-05-05T06:16:14.551Z,16.79
2023-05-05T06:18:46.909Z,16.66
2023-05-05T06:21:15.067Z,16.77
2023-05-05T06:23:43.465Z,16.56
2023-05-05T06:26:12.637Z,16.62
2023-05-05T06:28:41.337Z,16.75
2023-05-05T06:31:09.893Z,16.88
2023-05-05T06:33:38.099Z,16.75
2023-05-05T06:36:11.001Z,16.67
2023-05-05T06:38:39.234Z,16.75
2023-05-05T06:41:09.290Z,16.75
2023-05-05T06:43:37.720Z,16.77
2023-05-05T06:46:09.213Z,16.96
2023-05-05T06:48:37.682Z,16.83
2023-05-05T06:51:07.614Z,17.03
2023-05-05T06:53:36.127Z,17.22
2023-05-05T06:56:07.585Z,17.36
2023-05-05T06:58:35.731Z,17.49
2023-05-05T07:01:03.946Z,17.70
2023-05-05T07:03:33.329Z,18.13
2023-05-05T07:06:01.535Z,18.23
2023-05-05T07:08:31.375Z,18.34
2023-05-05T07:11:01.164Z,18.60
2023-05-05T07:13:29.868Z,18.60
2023-05-05T07:15:58.232Z,19.28
2023-05-05T07:18:26.621Z,19.39
2023-05-05T07:20:55.498Z,19.77
2023-05-05T07:23:23.854Z,20.26
2023-05-05T07:25:53.492Z,20.62
2023-05-05T07:28:23.399Z,20.31
2023-05-05T07:30:52.002Z,20.62
2023-05-05T07:33:20.190Z,20.56
2023-05-05T07:35:48.556Z,20.70
2023-05-05T07:38:16.867Z,21.30
2023-05-05T07:40:45.155Z,21.13
2023-05-05T07:43:14.690Z,21.58
2023-05-05T07:45:43.000Z,21.04
2023-05-05T07:48:11.557Z,21.11
2023-05-05T07:50:39.829Z,21.00
2023-05-05T07:53:14.438Z,20.92
2023-05-05T07:55:44.018Z,20.99
2023-05-05T07:58:12.425Z,21.51
2023-05-05T08:00:43.884Z,21.88
2023-05-05T08:03:12.446Z,22.26
2023-05-05T08:05:40.814Z,21.95
2023-05-05T08:08:09.169Z,21.68
2023-05-05T08:10:37.782Z,21.73
2023-05-05T08:13:06.885Z,22.33
2023-05-05T08:15:35.096Z,22.91
2023-05-05T08:18:04.944Z,22.78
2023-05-05T08:20:34.253Z,22.94
2023-05-05T08:23:02.905Z,23.68
2023-05-05T08:25:43.673Z,23.89
2023-05-05T08:28:12.354Z,24.14
2023-05-05T08:30:41.432Z,24.45
2023-05-05T08:33:11.098Z,23.93
2023-05-05T08:35:39.314Z,23.73
2023-05-05T08:38:07.710Z,24.20
2023-05-05T08:40:39.516Z,24.92
2023-05-05T08:43:08.440Z,24.85
2023-05-05T08:45:37.879Z,25.15
2023-05-05T08:48:07.165Z,24.28
2023-05-05T08:50:40.309Z,24.09
2023-05-05T08:53:11.665Z,24.56
2023-05-05T08:55:47.559Z,25.16
2023-05-05T08:58:17.520Z,25.27
2023-05-05T09:00:46.852Z,25.51
2023-05-05T09:03:15.624Z,25.79
2023-05-05T09:05:45.675Z,26.16
2023-05-05T09:08:14.529Z,25.53
2023-05-05T09:10:43.505Z,25.97
2023-05-05T09:13:11.889Z,26.02
2023-05-05T09:15:42.067Z,26.11
2023-05-05T09:18:13.312Z,25.95
2023-05-05T09:20:42.294Z,26.14
2023-05-05T09:23:13.190Z,26.67
2023-05-05T09:25:42.263Z,26.38
2023-05-05T09:28:11.520Z,26.71
2023-05-05T09:30:41.158Z,26.98
2023-05-05T09:33:10.067Z,27.67
2023-05-05T09:35:52.404Z,27.03
2023-05-05T09:38:23.317Z,27.66
2023-05-05T09:40:53.439Z,26.86
2023-05-05T09:43:22.957Z,26.78
2023-05-05T09:45:52.180Z,26.95
2023-05-05T09:48:27.932Z,26.45
2023-05-05T09:50:57.098Z,26.37
2023-05-05T09:53:27.069Z,25.61
2023-05-05T09:55:56.512Z,26.44
2023-05-05T09:58:26.438Z,27.03
2023-05-05T10:00:56.228Z,27.44
2023-05-05T10:03:25.363Z,28.09
2023-05-05T10:05:55.936Z,28.36
2023-05-05T10:08:27.533Z,27.35
2023-05-05T10:10:57.607Z,28.04
2023-05-05T10:13:27.260Z,29.07
2023-05-05T10:15:57.511Z,29.53
2023-05-05T10:18:27.680Z,29.41
2023-05-05T10:20:59.189Z,29.25
2023-05-05T10:23:36.985Z,29.31
2023-05-05T10:26:09.030Z,28.47
2023-05-05T10:28:45.954Z,28.83
2023-05-05T10:31:25.772Z,28.92
2023-05-05T10:34:00.280Z,28.82
2023-05-05T10:36:30.391Z,28.99
2023-05-05T10:39:01.648Z,28.88
2023-05-05T10:41:31.036Z,28.54
2023-05-05T10:44:02.173Z,27.53
2023-05-05T10:46:33.352Z,27.23
2023-05-05T10:49:13.230Z,26.71
2023-05-05T10:51:51.150Z,26.38
2023-05-05T10:54:27.261Z,25.89
2023-05-05T10:56:56.057Z,25.47
2023-05-05T10:59:43.917Z,25.23
2023-05-05T11:02:23.471Z,25.10
2023-05-05T11:05:17.064Z,24.66
2023-05-05T11:07:46.494Z,24.69
2023-05-05T11:10:18.981Z,24.65
2023-05-05T11:13:22.710Z,24.71
2023-05-05T11:15:54.271Z,25.02
2023-05-05T11:18:37.514Z,25.92
2023-05-05T11:21:16.518Z,25.80
2023-05-05T11:23:47.191Z,25.99
2023-05-05T11:26:18.628Z,26.87
2023-05-05T11:29:02.390Z,27.66
2023-05-05T11:31:31.991Z,28.19
2023-05-05T11:34:27.445Z,28.01
2023-05-05T11:37:01.147Z,28.53
2023-05-05T11:39:38.488Z,28.15
2023-05-05T11:42:23.351Z,27.58
2023-05-05T11:44:52.403Z,27.61
2023-05-05T11:47:34.052Z,26.27
2023-05-05T11:50:21.494Z,26.27
2023-05-05T11:52:50.599Z,26.31
2023-05-05T11:55:25.977Z,26.30
2023-05-05T11:57:55.704Z,26.17
2023-05-05T12:00:34.745Z,25.62
2023-05-05T12:03:03.249Z,25.53
2023-05-05T12:05:34.817Z,25.78
2023-05-05T12:08:07.325Z,25.27
2023-05-05T12:10:35.977Z,24.94
2023-05-05T12:13:05.545Z,24.77
2023-05-05T12:15:35.027Z,24.48
2023-05-05T12:18:05.461Z,24.28
2023-05-05T12:20:35.143Z,24.01
2023-05-05T12:23:04.857Z,23.79
2023-05-05T12:25:38.265Z,23.46
2023-05-05T12:28:10.496Z,23.35
2023-05-05T12:30:39.145Z,23.14
2023-05-05T12:33:08.626Z,23.11
2023-05-05T12:35:38.333Z,23.08
2023-05-05T12:38:06.646Z,22.86
2023-05-05T12:40:48.378Z,22.49
2023-05-05T12:43:29.919Z,22.41
2023-05-05T12:46:06.192Z,22.36
2023-05-05T12:48:39.123Z,19.40
2023-05-05T12:51:16.060Z,18.57
2023-05-05T12:53:44.670Z,18.97
2023-05-05T12:56:32.863Z,19.02
2023-05-05T12:59:03.020Z,19.23
2023-05-05T13:01:32.720Z,19.32
2023-05-05T13:04:13.611Z,19.89
2023-05-05T13:06:43.118Z,20.33
2023-05-05T13:09:23.562Z,20.87
2023-05-05T13:11:52.589Z,21.21
2023-05-05T13:14:22.250Z,20.90
2023-05-05T13:16:53.042Z,21.01
2023-05-05T13:22:43.217Z,21.11
2023-05-05T13:25:12.822Z,20.87
2023-05-05T13:27:40.977Z,20.54
2023-05-05T13:30:12.391Z,20.60
2023-05-05T13:32:43.218Z,20.52
2023-05-05T13:35:14.767Z,20.65
2023-05-05T13:37:46.006Z,20.19
2023-05-05T13:40:15.025Z,20.12
2023-05-05T13:42:43.111Z,20.14
2023-05-05T13:45:14.209Z,20.05
2023-05-05T13:47:44.697Z,20.11
2023-05-05T13:50:13.661Z,20.13
2023-05-05T13:52:42.425Z,20.28
2023-05-05T13:55:10.903Z,20.31
2023-05-05T13:57:39.095Z,20.41
2023-05-05T14:00:09.158Z,20.37
2023-05-05T14:02:38.663Z,20.56
2023-05-05T14:05:07.266Z,20.21
2023-05-05T14:07:36.006Z,20.16
2023-05-05T14:10:05.160Z,20.25
2023-05-05T14:12:33.668Z,20.39
2023-05-05T14:15:01.968Z,20.13
2023-05-05T14:17:30.283Z,20.57
2023-05-05T14:20:01.089Z,20.79
2023-05-05T14:22:29.245Z,21.20
2023-05-05T14:24:57.989Z,21.61
2023-05-05T14:27:26.769Z,21.96
2023-05-05T14:29:54.862Z,22.04
2023-05-05T14:32:23.245Z,21.87
2023-05-05T14:34:52.008Z,21.31
2023-05-05T14:37:22.902Z,21.30
2023-05-05T14:39:51.068Z,21.25
2023-05-05T14:42:19.152Z,21.22
2023-05-05T14:44:47.772Z,21.34
2023-05-05T14:47:16.665Z,21.39
2023-05-05T14:49:44.823Z,21.59
2023-05-05T14:52:13.301Z,21.67
2023-05-05T14:54:44.559Z,21.38
2023-05-05T14:57:12.760Z,21.38
2023-05-05T14:59:41.112Z,21.31
2023-05-05T15:02:09.336Z,21.52
2023-05-05T15:04:38.656Z,21.73
2023-05-05T15:07:07.007Z,21.61
2023-05-05T15:09:35.140Z,21.41
2023-05-05T15:12:05.874Z,21.15
2023-05-05T15:14:36.414Z,21.19
2023-05-05T15:17:06.842Z,21.16
2023-05-05T15:19:36.392Z,21.11
2023-05-05T15:22:04.825Z,21.01
2023-05-05T15:24:32.964Z,20.92
2023-05-05T15:27:01.817Z,20.79
2023-05-05T15:29:32.267Z,20.74
2023-05-05T15:32:00.717Z,20.63
2023-05-05T15:34:29.071Z,20.52
2023-05-05T15:36:57.365Z,20.42
2023-05-05T15:39:25.509Z,20.17
2023-05-05T15:41:53.590Z,20.03
2023-05-05T15:44:21.736Z,19.68
2023-05-05T15:46:51.310Z,19.18
2023-05-05T15:49:19.649Z,18.85
2023-05-05T15:51:49.266Z,18.36
2023-05-05T15:54:17.364Z,18.26
2023-05-05T15:56:45.795Z,17.89
2023-05-05T15:59:14.882Z,17.57
2023-05-05T16:01:43.557Z,17.67
2023-05-05T16:04:13.402Z,17.66
2023-05-05T16:06:41.798Z,17.59
2023-05-05T16:09:10.004Z,17.51
2023-05-05T16:11:38.568Z,17.58
2023-05-05T16:14:08.262Z,17.66
2023-05-05T16:16:36.818Z,17.75
2023-05-05T16:19:05.002Z,17.75
2023-05-05T16:21:35.750Z,17.77
2023-05-05T16:24:04.329Z,17.80
2023-05-05T16:26:32.800Z,17.93
2023-05-05T16:29:01.352Z,17.95
2023-05-05T16:31:30.055Z,17.89
2023-05-05T16:33:58.262Z,17.79
2023-05-05T16:36:28.420Z,17.76
2023-05-05T16:38:58.100Z,17.62
2023-05-05T16:41:27.517Z,17.72
2023-05-05T16:43:55.667Z,17.65
2023-05-05T16:46:24.664Z,17.50
2023-05-05T16:48:53.261Z,17.42
2023-05-05T16:51:21.462Z,17.28
2023-05-05T16:53:49.616Z,17.24
2023-05-05T16:56:19.191Z,17.16
2023-05-05T16:58:47.568Z,17.14
2023-05-05T17:01:15.947Z,17.06
2023-05-05T17:03:44.036Z,16.96
2023-05-05T17:06:12.958Z,16.86
2023-05-05T17:08:41.824Z,16.83
2023-05-05T17:11:11.845Z,16.69
2023-05-05T17:13:42.204Z,16.65
2023-05-05T17:16:10.536Z,16.65
2023-05-05T17:18:39.188Z,16.69
2023-05-05T17:21:07.714Z,16.76
2023-05-05T17:23:35.771Z,16.69
2023-05-05T17:26:05.277Z,16.64
2023-05-05T17:28:33.659Z,16.67
2023-05-05T17:31:03.414Z,16.63
2023-05-05T17:33:31.387Z,16.59
2023-05-05T17:35:59.909Z,16.65
2023-05-05T17:38:28.322Z,16.61
2023-05-05T17:40:57.916Z,16.67
2023-05-05T17:43:25.850Z,16.66
2023-05-05T17:45:56.253Z,16.60
2023-05-05T17:48:27.276Z,16.40
2023-05-05T17:50:55.905Z,16.32
2023-05-05T17:53:25.172Z,16.37
2023-05-05T17:55:53.514Z,16.32
2023-05-05T17:58:22.713Z,16.25
2023-05-05T18:00:50.865Z,16.27
2023-05-05T18:03:20.347Z,16.30
2023-05-05T18:05:49.891Z,16.24
2023-05-05T18:08:18.561Z,16.15
2023-05-05T18:10:47.311Z,16.19
2023-05-05T18:13:15.561Z,16.20
2023-05-05T18:15:44.063Z,16.16
2023-05-05T18:18:12.227Z,16.08
2023-05-05T18:20:40.986Z,16.03
2023-05-05T18:23:11.274Z,16.01
2023-05-05T18:25:39.587Z,16.10
2023-05-05T18:28:07.840Z,16.08
2023-05-05T18:30:37.567Z,16.05
2023-05-05T18:33:05.946Z,16.00
2023-05-05T18:35:35.687Z,16.01
2023-05-05T18:38:03.958Z,15.96
2023-05-05T18:40:33.662Z,15.90
2023-05-05T18:43:02.184Z,15.93
2023-05-05T18:45:31.967Z,15.90
2023-05-05T18:48:01.332Z,15.84
2023-05-05T18:50:29.910Z,15.80
2023-05-05T18:52:58.223Z,15.75
2023-05-05T18:55:29.909Z,15.71
2023-05-05T18:57:59.496Z,15.68
2023-05-05T19:00:27.598Z,15.63
2023-05-05T19:02:55.985Z,15.59
2023-05-05T19:05:24.667Z,15.56
2023-05-05T19:07:52.942Z,15.54
2023-05-05T19:10:21.202Z,15.50
2023-05-05T19:12:50.488Z,15.50
2023-05-05T19:15:20.801Z,15.46
2023-05-05T19:17:49.285Z,15.44
2023-05-05T19:20:17.738Z,15.39
2023-05-05T19:22:46.304Z,15.36
2023-05-05T19:25:14.634Z,15.33
2023-05-05T19:27:42.986Z,15.35
2023-05-05T19:30:13.002Z,15.32
2023-05-05T19:32:42.733Z,15.29
2023-05-05T19:35:12.796Z,15.27
2023-05-05T19:37:41.915Z,15.26
2023-05-05T19:40:11.084Z,15.24
2023-05-05T19:42:39.807Z,15.22
2023-05-05T19:45:09.168Z,15.21
2023-05-05T19:47:38.398Z,15.21
2023-05-05T19:50:09.467Z,15.21
2023-05-05T19:52:38.428Z,15.22
2023-05-05T19:55:10.683Z,15.18
2023-05-05T19:57:40.465Z,15.11
2023-05-05T20:00:11.194Z,15.08
2023-05-05T20:02:39.730Z,15.08
2023-05-05T20:05:14.313Z,15.04
2023-05-05T20:07:43.765Z,15.04
2023-05-05T20:10:14.262Z,15.02
2023-05-05T20:12:48.372Z,14.96
2023-05-05T20:15:21.633Z,14.92
2023-05-05T20:17:49.859Z,14.89
2023-05-05T20:20:23.655Z,14.85
2023-05-05T20:22:53.019Z,14.84
2023-05-05T20:25:21.846Z,14.86
2023-05-05T20:27:51.066Z,14.75
2023-05-05T20:30:19.239Z,14.71
2023-05-05T20:32:47.940Z,14.63
2023-05-05T20:35:16.275Z,14.56
2023-05-05T20:37:46.380Z,14.51
2023-05-05T20:40:15.910Z,14.47
2023-05-05T20:42:44.311Z,14.45
2023-05-05T20:45:12.764Z,14.39
2023-05-05T20:47:41.901Z,14.33
2023-05-05T20:50:11.710Z,14.30
2023-05-05T20:52:40.260Z,14.23
2023-05-05T20:55:10.688Z,14.19
2023-05-05T20:57:39.305Z,14.11
2023-05-05T21:00:09.392Z,14.06
2023-05-05T21:02:38.714Z,14.06
2023-05-05T21:05:12.573Z,14.01
2023-05-05T21:07:46.173Z,13.92
2023-05-05T21:10:18.777Z,13.87
2023-05-05T21:12:46.853Z,13.80
2023-05-05T21:15:17.605Z,13.77
2023-05-05T21:17:48.766Z,13.70
2023-05-05T21:20:18.698Z,13.64
2023-05-05T21:22:47.368Z,13.60
2023-05-05T21:25:19.803Z,13.55
2023-05-05T21:27:50.379Z,13.47
2023-05-05T21:30:18.729Z,13.42
2023-05-05T21:32:48.920Z,13.42
2023-05-05T21:35:19.752Z,13.41
2023-05-05T21:37:49.769Z,13.37
2023-05-05T21:40:20.133Z,13.31
2023-05-05T21:42:48.561Z,13.26
2023-05-05T21:45:16.912Z,13.23
2023-05-05T21:47:45.488Z,13.21
2023-05-05T21:50:13.988Z,13.16
2023-05-05T21:52:44.244Z,13.12
2023-05-05T21:55:14.671Z,13.08
2023-05-05T21:57:44.611Z,13.05
2023-05-05T22:00:16.639Z,13.05
2023-05-05T22:02:45.801Z,13.06
2023-05-05T22:05:14.378Z,13.06
2023-05-05T22:07:42.884Z,13.08
2023-05-05T22:10:13.483Z,13.09
2023-05-05T22:12:44.734Z,13.05
2023-05-05T22:15:15.009Z,13.07
2023-05-05T22:17:48.866Z,13.07
2023-05-05T22:20:19.003Z,13.03
2023-05-05T22:22:47.141Z,13.01
2023-05-05T22:25:15.692Z,12.96
2023-05-05T22:27:47.424Z,12.98
2023-05-05T22:30:18.754Z,12.97
2023-05-05T22:32:49.627Z,12.95
2023-05-05T22:35:25.691Z,12.89
2023-05-05T22:37:54.035Z,12.85
2023-05-05T22:40:22.201Z,12.85
2023-05-05T22:42:53.430Z,12.85
2023-05-05T22:45:23.931Z,12.87
2023-05-05T22:47:53.369Z,12.87
2023-05-05T22:50:21.615Z,12.86
2023-05-05T22:52:49.962Z,12.87
2023-05-05T22:55:21.233Z,12.85
2023-05-05T22:57:49.862Z,12.81
2023-05-05T23:00:18.320Z,12.78
2023-05-05T23:02:47.936Z,12.76
2023-05-05T23:05:15.967Z,12.72
2023-05-05T23:07:44.089Z,12.69
2023-05-05T23:10:12.972Z,12.65
2023-05-05T23:12:41.338Z,12.60
2023-05-05T23:15:11.102Z,12.58
2023-05-05T23:17:43.522Z,12.56
2023-05-05T23:20:17.442Z,12.53
2023-05-05T23:22:45.440Z,12.53
2023-05-05T23:25:16.581Z,12.53
2023-05-05T23:27:45.299Z,12.54
2023-05-05T23:30:14.475Z,12.57
2023-05-05T23:32:46.163Z,12.53
2023-05-05T23:35:18.729Z,12.52
2023-05-05T23:37:47.416Z,12.55
2023-05-05T23:40:18.197Z,12.48
2023-05-05T23:42:46.650Z,12.48
2023-05-05T23:45:16.007Z,12.46
2023-05-05T23:47:47.634Z,12.46
2023-05-05T23:50:21.485Z,12.41
2023-05-05T23:52:53.174Z,12.36
2023-05-05T23:55:22.903Z,12.29
2023-05-05T23:57:52.358Z,12.25
